AA5HY Weather Reports


Display with metric or nautical units.
time (UTC)temp
F
wind
direction
speed
MPH
gust
MPH
rain 1hr
in
rain 24hr
in
rain mn
in
humidity
%
barometer
mb
20210615201047 93 345 1.0 2.0 0.00 0.00 0.00 51 1015.6
20210615201006 93 335 2.0 3.0 0.00 0.00 0.00 53 1008.6
20210615200541 93 8 2.0 2.0 0.00 0.00 0.00 54 1015.5
20210615200506 93 355 3.0 5.0 0.00 0.00 0.00 50 1008.8
20210615200037 93 340 2.0 5.0 0.00 0.00 0.00 53 1015.6
20210615200005 93 17 1.0 3.0 0.00 0.00 0.00 49 1008.7
20210615195533 93 7 2.0 2.0 0.00 0.00 0.00 45 1015.6
20210615195505 93 350 2.0 3.0 0.00 0.00 0.00 49 1008.8
20210615195018 92 350 1.0 1.0 0.00 0.00 0.00 48 1015.7
20210615195006 92 12 3.0 5.0 0.00 0.00 0.00 52 1008.7
20210615194512 93 353 2.0 2.0 0.00 0.00 0.00 53 1015.7
20210615194505 92 45 2.0 5.0 0.00 0.00 0.00 50 1008.7
20210615194009 93 15 3.0 3.0 0.00 0.00 0.00 53 1015.9
20210615194005 92 1 1.0 5.0 0.00 0.00 0.00 54 1008.9
20210615193508 93 350 2.0 5.0 0.00 0.00 0.00 53 1008.9
20210615193504 93 346 1.0 2.0 0.00 0.00 0.00 54 1015.7
20210615193007 93 332 1.0 6.0 0.00 0.00 0.00 53 1008.9
20210615193003 93 337 1.0 2.0 0.00 0.00 0.00 54 1015.8
20210615192506 93 3 3.0 6.0 0.00 0.00 0.00 53 1009.1
20210615192459 93 7 5.0 6.0 0.00 0.00 0.00 53 1016.0
20210615192005 92 343 2.0 5.0 0.00 0.00 0.00 53 1009.1
20210615191954 93 328 2.0 2.0 0.00 0.00 0.00 51 1016.0
20210615191506 92 342 1.0 6.0 0.00 0.00 0.00 56 1009.1
20210615191453 92 341 2.0 2.0 0.00 0.00 0.00 56 1015.8
20210615191005 92 43 3.0 5.0 0.00 0.00 0.00 54 1009.2
20210615190948 92 61 4.0 5.0 0.00 0.00 0.00 55 1016.0
20210615190505 93 337 1.0 3.0 0.00 0.00 0.00 54 1009.1
20210615190448 93 335 1.0 1.0 0.00 0.00 0.00 54 1016.2
20210615190006 92 346 2.0 5.0 0.00 0.00 0.00 53 1009.2
20210615185940 92 350 3.0 3.0 0.00 0.00 0.00 53 1015.9
20210615185505 92 329 2.0 7.0 0.00 0.00 0.00 54 1009.2
20210615185436 92 330 2.0 2.0 0.00 0.00 0.00 53 1016.1
20210615185005 92 342 2.0 7.0 0.00 0.00 0.00 53 1009.4
20210615184932 92 343 2.0 2.0 0.00 0.00 0.00 53 1016.4
20210615184508 91 344 2.0 7.0 0.00 0.00 0.00 55 1009.4
20210615184425 92 345 2.0 2.0 0.00 0.00 0.00 56 1016.3
20210615184007 91 0 5.0 7.0 0.00 0.00 0.00 53 1009.5
20210615183922 91 10 6.0 7.0 0.00 0.00 0.00 53 1016.3
20210615183508 92 351 3.0 5.0 0.00 0.00 0.00 55 1009.3
20210615183417 92 349 3.0 5.0 0.00 0.00 0.00 54 1016.2
20210615183008 91 354 3.0 7.0 0.00 0.00 0.00 58 1009.4
20210615182914 91 16 3.0 3.0 0.00 0.00 0.00 56 1016.2
20210615182505 91 31 4.0 6.0 0.00 0.00 0.00 57 1009.4
20210615182413 91 14 3.0 6.0 0.00 0.00 0.00 58 1016.2
20210615182006 91 345 2.0 5.0 0.00 0.00 0.00 57 1009.4
20210615181914 91 346 2.0 2.0 0.00 0.00 0.00 56 1016.3
20210615181506 92 2 2.0 3.0 0.00 0.00 0.00 59 1009.5
20210615181413 92 6 3.0 3.0 0.00 0.00 0.00 61 1016.5
20210615181006 92 354 2.0 6.0 0.00 0.00 0.00 59 1009.3
20210615180912 92 5 2.0 2.0 0.00 0.00 0.00 60 1016.3
20210615180506 92 353 3.0 3.0 0.00 0.00 0.00 58 1009.2
20210615180411 92 351 3.0 3.0 0.00 0.00 0.00 60 1016.2
20210615180005 91 18 4.0 7.0 0.00 0.00 0.00 58 1009.6
20210615175909 91 10 3.0 3.0 0.00 0.00 0.00 59 1016.5
20210615175505 92 351 2.0 7.0 0.00 0.00 0.00 57 1009.4
20210615175408 92 13 2.0 2.0 0.00 0.00 0.00 58 1016.3
20210615175007 91 349 4.0 7.0 0.00 0.00 0.00 58 1009.6
20210615174906 91 355 5.0 6.0 0.00 0.00 0.00 56 1016.5
20210615174506 92 354 4.0 7.0 0.00 0.00 0.00 56 1009.5
20210615174401 92 350 5.0 7.0 0.00 0.00 0.00 55 1016.4
20210615174007 92 337 1.0 3.0 0.00 0.00 0.00 59 1009.3
20210615173858 92 310 1.0 2.0 0.00 0.00 0.00 59 1016.3
20210615173507 91 338 2.0 6.0 0.00 0.00 0.00 58 1009.5
20210615173354 91 312 2.0 2.0 0.00 0.00 0.00 59 1016.3
20210615173008 91 353 2.0 3.0 0.00 0.00 0.00 57 1009.3
20210615172848 91 353 2.0 2.0 0.00 0.00 0.00 57 1016.2
20210615172507 91 10 1.0 6.0 0.00 0.00 0.00 56 1009.2
20210615172344 91 17 1.0 1.0 0.00 0.00 0.00 55 1016.0
20210615172007 91 43 4.0 6.0 0.00 0.00 0.00 54 1009.4
20210615171603 91 16 3.0 5.0 0.00 0.00 0.00 62 1016.2
20210615171506 91 345 3.0 5.0 0.00 0.00 0.00 62 1009.3
20210615171104 91 0 1.0 2.0 0.00 0.00 0.00 62 1016.4
20210615171008 91 340 1.0 5.0 0.00 0.00 0.00 60 1009.3
20210615170558 91 4 2.0 3.0 0.00 0.00 0.00 57 1016.2
20210615170508 91 344 3.0 5.0 0.00 0.00 0.00 59 1009.4
20210615170057 91 2 2.0 3.0 0.00 0.00 0.00 59 1016.3
20210615170006 91 28 1.0 5.0 0.00 0.00 0.00 60 1009.3
20210615165556 91 29 3.0 5.0 0.00 0.00 0.00 63 1016.4
20210615165505 91 340 2.0 2.0 0.00 0.00 0.00 61 1009.5
20210615165055 91 321 1.0 1.0 0.00 0.00 0.00 61 1016.3
20210615165006 91 337 3.0 5.0 0.00 0.00 0.00 59 1009.5
20210615164549 91 352 1.0 1.0 0.00 0.00 0.00 61 1016.3
20210615164506 91 351 2.0 3.0 0.00 0.00 0.00 63 1009.6
20210615164045 90 346 3.0 3.0 0.00 0.00 0.00 57 1016.4
20210615164006 90 14 2.0 6.0 0.00 0.00 0.00 59 1009.5
20210615163543 91 17 3.0 3.0 0.00 0.00 0.00 58 1016.5
20210615163509 92 353 2.0 5.0 0.00 0.00 0.00 61 1009.4
20210615163030 91 346 1.0 1.0 0.00 0.00 0.00 64 1016.3
20210615163013 90 343 1.0 3.0 0.00 0.00 0.00 62 1009.5
20210615162523 91 5 2.0 2.0 0.00 0.00 0.00 63 1016.4
20210615162505 91 3 1.0 3.0 0.00 0.00 0.00 64 1009.2
20210615162018 91 345 1.0 2.0 0.00 0.00 0.00 61 1016.3
20210615162005 91 358 2.0 3.0 0.00 0.00 0.00 62 1009.3
20210615161516 92 349 1.0 1.0 0.00 0.00 0.00 60 1016.2
20210615161507 91 0 0.0 2.0 0.00 0.00 0.00 63 1009.4
20210615161010 90 346 2.0 2.0 0.00 0.00 0.00 62 1016.2
20210615161006 90 340 1.0 3.0 0.00 0.00 0.00 62 1009.4
20210615160508 90 348 2.0 3.0 0.00 0.00 0.00 62 1009.3
20210615160506 91 348 3.0 3.0 0.00 0.00 0.00 64 1016.1
20210615160010 91 354 1.0 3.0 0.00 0.00 0.00 63 1009.4
20210615160003 90 355 2.0 3.0 0.00 0.00 0.00 62 1016.3
20210615155506 90 358 2.0 3.0 0.00 0.00 0.00 64 1009.4
20210615155500 90 358 1.0 2.0 0.00 0.00 0.00 64 1016.3
20210615155006 89 350 3.0 6.0 0.00 0.00 0.00 69 1009.4
20210615154955 89 350 2.0 3.0 0.00 0.00 0.00 69 1016.3
20210615154508 90 3 1.0 6.0 0.00 0.00 0.00 64 1009.4
20210615154453 90 18 4.0 6.0 0.00 0.00 0.00 64 1016.2
20210615154005 90 19 1.0 3.0 0.00 0.00 0.00 65 1009.5
20210615153949 90 31 2.0 3.0 0.00 0.00 0.00 64 1016.4
20210615153504 90 344 1.0 3.0 0.00 0.00 0.00 68 1009.4
20210615153449 90 339 0.0 0.0 0.00 0.00 0.00 67 1016.2
20210615153005 90 33 2.0 2.0 0.00 0.00 0.00 65 1009.5
20210615152941 90 26 2.0 3.0 0.00 0.00 0.00 66 1016.3
20210615152506 90 18 1.0 2.0 0.00 0.00 0.00 64 1009.6
20210615152441 90 29 2.0 2.0 0.00 0.00 0.00 66 1016.3
20210615152005 89 346 1.0 2.0 0.00 0.00 0.00 66 1009.4
20210615151939 90 346 0.0 0.0 0.00 0.00 0.00 65 1016.5
20210615151508 89 29 1.0 3.0 0.00 0.00 0.00 68 1009.7
20210615151427 89 55 1.0 2.0 0.00 0.00 0.00 68 1016.7
20210615151005 88 345 1.0 3.0 0.00 0.00 0.00 66 1009.5
20210615150924 88 342 1.0 1.0 0.00 0.00 0.00 66 1016.4
20210615150507 88 0 1.0 3.0 0.00 0.00 0.00 66 1009.8
20210615150421 88 355 2.0 2.0 0.00 0.00 0.00 66 1016.7
20210615150005 88 337 1.0 2.0 0.00 0.00 0.00 67 1009.6
20210615145918 88 325 1.0 1.0 0.00 0.00 0.00 67 1016.5
20210615145505 88 340 1.0 2.0 0.00 0.00 0.00 68 1009.6
20210615145412 88 340 2.0 2.0 0.00 0.00 0.00 68 1016.4
20210615145007 88 345 1.0 3.0 0.00 0.00 0.00 68 1009.5
20210615144906 88 350 1.0 1.0 0.00 0.00 0.00 67 1016.4
20210615144507 89 1 0.0 1.0 0.00 0.00 0.00 71 1009.5
20210615144402 89 3 1.0 1.0 0.00 0.00 0.00 71 1016.4
20210615144005 87 333 1.0 3.0 0.00 0.00 0.00 71 1009.7
20210615143900 87 333 2.0 2.0 0.00 0.00 0.00 70 1016.5
20210615143507 88 358 2.0 5.0 0.00 0.00 0.00 69 1009.7
20210615143353 88 359 4.0 5.0 0.00 0.00 0.00 70 1016.5
20210615143005 87 342 1.0 2.0 0.00 0.00 0.00 69 1009.6
20210615142843 87 350 1.0 1.0 0.00 0.00 0.00 70 1016.3
20210615142505 88 340 0.0 2.0 0.00 0.00 0.00 70 1009.6
20210615142337 87 354 0.0 1.0 0.00 0.00 0.00 70 1016.6
20210615142010 86 11 1.0 3.0 0.00 0.00 0.00 72 1009.3
20210615141830 86 354 1.0 1.0 0.00 0.00 0.00 73 1016.3
20210615141508 87 349 2.0 5.0 0.00 0.00 0.00 71 1009.4
20210615141328 87 338 2.0 2.0 0.00 0.00 0.00 71 1016.3
20210615141008 87 355 1.0 3.0 0.00 0.00 0.00 72 1009.6
20210615140821 87 358 1.0 1.0 0.00 0.00 0.00 72 1016.6
20210615140507 87 30 1.0 2.0 0.00 0.00 0.00 72 1009.4
20210615140319 87 31 1.0 2.0 0.00 0.00 0.00 71 1016.3
20210615140008 86 20 1.0 2.0 0.00 0.00 0.00 74 1009.4
20210615135816 86 22 1.0 1.0 0.00 0.00 0.00 73 1016.4
20210615135506 86 340 0.0 3.0 0.00 0.00 0.00 75 1009.4
20210615135313 86 335 0.0 0.0 0.00 0.00 0.00 76 1016.2
20210615135007 85 43 1.0 3.0 0.00 0.00 0.00 75 1009.3
20210615134808 85 9 1.0 2.0 0.00 0.00 0.00 74 1016.4
20210615134520 85 190 2.0 3.0 0.00 0.00 0.00 74 1009.4
20210615134304 85 94 2.0 3.0 0.00 0.00 0.00 74 1016.3
20210615134006 85 0 2.0 3.0 0.00 0.00 0.00 76 1009.5
20210615133800 85 299 1.0 2.0 0.00 0.00 0.00 78 1016.4
20210615133508 84 307 1.0 3.0 0.00 0.00 0.00 77 1009.4
20210615133255 84 333 0.0 0.0 0.00 0.00 0.00 78 1016.3
20210615133005 84 229 2.0 3.0 0.00 0.00 0.00 77 1009.4
20210615132752 84 356 1.0 1.0 0.00 0.00 0.00 79 1016.2
20210615132508 84 44 1.0 2.0 0.00 0.00 0.00 78 1009.5
20210615132247 84 91 0.0 1.0 0.00 0.00 0.00 77 1016.2
20210615132005 84 351 1.0 1.0 0.00 0.00 0.00 77 1009.4
20210615131742 84 0 1.0 1.0 0.00 0.00 0.00 77 1016.0
20210615131505 83 350 0.0 1.0 0.00 0.00 0.00 79 1009.1
20210615131233 83 351 0.0 0.0 0.00 0.00 0.00 79 1016.1
20210615131005 83 356 1.0 1.0 0.00 0.00 0.00 80 1009.1
20210615130727 83 339 1.0 1.0 0.00 0.00 0.00 80 1016.0
20210615130507 82 356 0.0 1.0 0.00 0.00 0.00 82 1009.1
20210615130226 82 354 0.0 0.0 0.00 0.00 0.00 82 1016.0
20210615130005 81 358 1.0 2.0 0.00 0.00 0.00 83 1009.0
20210615125724 81 6 1.0 1.0 0.00 0.00 0.00 81 1015.8
20210615125509 82 9 1.0 1.0 0.00 0.00 0.00 81 1009.1
20210615125223 82 350 1.0 1.0 0.00 0.00 0.00 82 1015.9
20210615125005 81 1 1.0 1.0 0.00 0.00 0.00 83 1009.1
20210615124717 80 348 0.0 0.0 0.00 0.00 0.00 82 1015.7
20210615124505 80 4 1.0 1.0 0.00 0.00 0.00 84 1009.0
20210615124212 80 3 0.0 0.0 0.00 0.00 0.00 85 1016.0
20210615124006 79 3 1.0 1.0 0.00 0.00 0.00 86 1009.1
20210615123707 79 352 1.0 1.0 0.00 0.00 0.00 86 1015.9
20210615123505 79 6 1.0 1.0 0.00 0.00 0.00 87 1009.2
20210615123205 78 355 1.0 1.0 0.00 0.00 0.00 88 1016.0
20210615123006 78 343 1.0 1.0 0.00 0.00 0.00 88 1009.1
20210615122658 78 352 1.0 1.0 0.00 0.00 0.00 89 1015.9
20210615122507 78 345 1.0 2.0 0.00 0.00 0.00 90 1009.1
20210615122157 78 351 1.0 2.0 0.00 0.00 0.00 91 1016.0
20210615122007 77 348 0.0 0.0 0.00 0.00 0.00 93 1008.9
20210615121655 77 348 0.0 0.0 0.00 0.00 0.00 93 1016.0
20210615121506 76 348 0.0 0.0 0.00 0.00 0.00 94 1009.0
20210615121153 75 348 0.0 0.0 0.00 0.00 0.00 94 1016.0
20210615121005 75 349 0.0 1.0 0.00 0.00 0.00 94 1009.1
20210615120648 75 346 0.0 0.0 0.00 0.00 0.00 94 1015.7
20210615120506 75 339 1.0 1.0 0.00 0.00 0.00 95 1009.1
20210615120144 75 334 1.0 1.0 0.00 0.00 0.00 95 1015.8
20210615120006 75 334 0.0 1.0 0.00 0.00 0.00 95 1009.1
20210615115641 75 334 0.0 0.0 0.00 0.00 0.00 95 1016.0
20210615115507 74 334 1.0 1.0 0.00 0.00 0.00 95 1008.9
20210615115139 74 334 0.0 1.0 0.00 0.00 0.00 95 1015.9
20210615115005 74 334 0.0 1.0 0.00 0.00 0.00 95 1009.0
20210615114636 74 334 1.0 1.0 0.00 0.00 0.00 95 1016.0
20210615114505 74 334 1.0 1.0 0.00 0.00 0.00 95 1008.9
20210615114132 74 334 0.0 0.0 0.00 0.00 0.00 95 1015.9
20210615114007 74 334 0.0 0.0 0.00 0.00 0.00 95 1008.7
20210615113625 74 334 0.0 0.0 0.00 0.00 0.00 95 1015.6
20210615113505 74 334 0.0 0.0 0.00 0.00 0.00 95 1008.8
20210615113123 74 334 0.0 0.0 0.00 0.00 0.00 94 1015.8
20210615113005 74 334 1.0 1.0 0.00 0.00 0.00 94 1008.8
20210615112617 74 334 0.0 0.0 0.00 0.00 0.00 94 1015.7
20210615112506 74 334 0.0 0.0 0.00 0.00 0.00 94 1008.8
20210615112115 74 334 0.0 0.0 0.00 0.00 0.00 94 1015.6
20210615112005 74 334 0.0 0.0 0.00 0.00 0.00 94 1008.8
20210615111601 74 334 0.0 0.0 0.00 0.00 0.00 94 1015.7
20210615111506 74 334 0.0 0.0 0.00 0.00 0.00 94 1008.8
20210615111058 74 334 0.0 0.0 0.00 0.00 0.00 94 1015.6
20210615111007 74 334 0.0 0.0 0.00 0.00 0.00 94 1008.7
20210615110554 74 334 0.0 0.0 0.00 0.00 0.00 94 1015.5
20210615110506 74 334 0.0 1.0 0.00 0.00 0.00 94 1008.6
20210615110045 74 334 0.0 1.0 0.00 0.00 0.00 94 1015.4
20210615110007 74 334 0.0 1.0 0.00 0.00 0.00 94 1008.7
20210615105536 75 334 0.0 0.0 0.00 0.00 0.00 94 1015.4
20210615105507 75 333 1.0 1.0 0.00 0.00 0.00 94 1008.7
20210615105032 75 339 1.0 1.0 0.00 0.00 0.00 93 1015.5
20210615105006 75 339 0.0 1.0 0.00 0.00 0.00 93 1008.6
20210615104532 75 339 0.0 0.0 0.00 0.00 0.00 93 1015.2
20210615104507 75 339 0.0 1.0 0.00 0.00 0.00 93 1008.3
20210615104029 75 340 0.0 1.0 0.00 0.00 0.00 93 1015.0
20210615104006 75 340 0.0 1.0 0.00 0.00 0.00 93 1008.1
20210615103529 75 340 0.0 1.0 0.00 0.00 0.00 93 1015.0
20210615103507 75 339 1.0 2.0 0.00 0.00 0.00 93 1008.3
20210615103027 75 343 2.0 2.0 0.00 0.00 0.00 93 1015.3
20210615103005 75 343 2.0 2.0 0.00 0.00 0.00 93 1008.4
20210615102523 75 340 1.0 1.0 0.00 0.00 0.00 93 1014.9
20210615102507 75 341 1.0 2.0 0.00 0.00 0.00 93 1008.0
20210615102022 75 351 1.0 1.0 0.00 0.00 0.00 93 1014.9
20210615102007 75 340 1.0 1.0 0.00 0.00 0.00 93 1007.9
20210615101520 75 357 0.0 1.0 0.00 0.00 0.00 93 1015.2
20210615101505 75 357 1.0 2.0 0.00 0.00 0.00 93 1008.3
20210615101020 75 357 0.0 1.0 0.00 0.00 0.00 93 1015.0
20210615101006 75 346 2.0 3.0 0.00 0.00 0.00 93 1008.1
20210615100507 75 351 1.0 1.0 0.00 0.00 0.00 93 1014.8
20210615100006 75 348 0.0 1.0 0.00 0.00 0.00 93 1007.9
20210615095506 75 348 0.0 0.0 0.00 0.00 0.00 93 1007.9
20210615095502 75 348 0.0 0.0 0.00 0.00 0.00 93 1014.7
20210615095008 75 348 0.0 0.0 0.00 0.00 0.00 93 1007.8
20210615094959 75 348 0.0 0.0 0.00 0.00 0.00 93 1014.7
20210615094506 76 348 0.0 1.0 0.00 0.00 0.00 92 1007.8
20210615094455 75 348 0.0 0.0 0.00 0.00 0.00 92 1014.8
20210615094006 76 348 0.0 1.0 0.00 0.00 0.00 92 1007.9
20210615093952 76 349 0.0 1.0 0.00 0.00 0.00 92 1014.8
20210615093507 76 348 0.0 0.0 0.00 0.00 0.00 92 1007.8
20210615093447 76 348 0.0 0.0 0.00 0.00 0.00 92 1014.7
20210615093005 76 346 0.0 1.0 0.00 0.00 0.00 92 1008.1
20210615092946 76 348 0.0 0.0 0.00 0.00 0.00 92 1014.9
20210615092506 76 343 1.0 2.0 0.00 0.00 0.00 92 1008.0
20210615092446 76 351 0.0 1.0 0.00 0.00 0.00 92 1014.9
20210615092005 76 347 1.0 2.0 0.00 0.00 0.00 92 1008.0
20210615091943 76 340 1.0 2.0 0.00 0.00 0.00 92 1014.8
20210615091509 76 340 1.0 2.0 0.00 0.00 0.00 92 1008.0
20210615091439 76 340 1.0 1.0 0.00 0.00 0.00 92 1014.8
20210615091005 76 344 1.0 2.0 0.00 0.00 0.00 93 1007.8
20210615090934 76 344 2.0 2.0 0.00 0.00 0.00 93 1014.6
20210615090508 76 340 1.0 2.0 0.00 0.00 0.00 93 1007.9
20210615090413 76 340 1.0 2.0 0.00 0.00 0.00 93 1014.9
20210615090005 76 352 0.0 1.0 0.00 0.00 0.00 93 1007.8
20210615085913 76 352 0.0 0.0 0.00 0.00 0.00 93 1014.6
20210615085507 75 352 0.0 0.0 0.00 0.00 0.00 93 1007.7
20210615085406 75 352 0.0 0.0 0.00 0.00 0.00 93 1014.7
20210615085006 76 352 0.0 0.0 0.00 0.00 0.00 93 1007.8
20210615084903 76 352 0.0 0.0 0.00 0.00 0.00 93 1014.7
20210615084505 76 352 0.0 1.0 0.00 0.00 0.00 92 1007.7
20210615084401 76 352 0.0 1.0 0.00 0.00 0.00 93 1014.4
20210615084005 76 352 0.0 1.0 0.00 0.00 0.00 93 1007.8
20210615083851 76 352 1.0 1.0 0.00 0.00 0.00 93 1014.6
20210615083506 76 352 1.0 1.0 0.00 0.00 0.00 93 1007.6
20210615083351 76 352 1.0 1.0 0.00 0.00 0.00 93 1014.4
20210615083005 76 347 1.0 2.0 0.00 0.00 0.00 93 1007.6
20210615082846 76 348 0.0 0.0 0.00 0.00 0.00 93 1014.5
20210615082505 76 349 0.0 1.0 0.00 0.00 0.00 93 1007.8
20210615082345 76 349 0.0 0.0 0.00 0.00 0.00 93 1014.6
20210615082007 76 356 1.0 2.0 0.00 0.00 0.00 93 1007.5
20210615081842 76 359 2.0 2.0 0.00 0.00 0.00 93 1014.5
20210615081506 76 350 1.0 2.0 0.00 0.00 0.00 94 1007.7
20210615081339 76 352 2.0 2.0 0.00 0.00 0.00 94 1014.6
20210615081005 76 344 1.0 2.0 0.00 0.00 0.00 94 1007.6
20210615080837 76 341 1.0 1.0 0.00 0.00 0.00 94 1014.4
20210615080512 76 350 2.0 3.0 0.00 0.00 0.00 94 1007.7
20210615080328 76 348 3.0 3.0 0.00 0.00 0.00 94 1014.6
20210615080005 76 345 1.0 2.0 0.00 0.00 0.00 95 1007.5
20210615075825 76 356 1.0 2.0 0.00 0.00 0.00 95 1014.4
20210615075506 75 357 1.0 1.0 0.00 0.00 0.00 95 1007.7
20210615075323 75 357 0.0 0.0 0.00 0.00 0.00 95 1014.5
20210615075006 75 357 0.0 0.0 0.00 0.00 0.00 95 1007.4
20210615074820 75 357 0.0 0.0 0.00 0.00 0.00 95 1014.5
20210615074507 75 357 0.0 0.0 0.00 0.00 0.00 95 1007.6
20210615074320 75 357 0.0 0.0 0.00 0.00 0.00 95 1014.5
20210615074005 75 356 0.0 1.0 0.00 0.00 0.00 95 1007.5
20210615073815 75 356 0.0 0.0 0.00 0.00 0.00 95 1014.3
20210615073507 75 356 0.0 2.0 0.00 0.00 0.00 95 1007.5
20210615073313 75 356 0.0 0.0 0.00 0.00 0.00 95 1014.4
20210615073008 75 359 0.0 1.0 0.00 0.00 0.00 95 1007.6
20210615072809 75 0 0.0 1.0 0.00 0.00 0.00 95 1014.5
20210615072508 75 358 1.0 1.0 0.00 0.00 0.00 95 1007.5
20210615072245 75 354 0.0 0.0 0.00 0.00 0.00 95 1014.5
20210615072007 75 355 1.0 1.0 0.00 0.00 0.00 95 1007.6
20210615071743 75 355 1.0 1.0 0.00 0.00 0.00 95 1014.6
20210615071507 75 355 0.0 0.0 0.00 0.00 0.00 95 1007.8
20210615071241 75 355 0.0 0.0 0.00 0.00 0.00 95 1014.5
20210615071008 75 355 0.0 0.0 0.00 0.00 0.00 95 1007.8
20210615070736 75 355 0.0 0.0 0.00 0.00 0.00 95 1014.5
20210615070507 75 355 0.0 1.0 0.00 0.00 0.00 95 1007.7
20210615070229 75 355 0.0 0.0 0.00 0.00 0.00 95 1014.5
20210615070006 75 355 1.0 1.0 0.00 0.00 0.00 95 1007.7
20210615065727 75 355 0.0 0.0 0.00 0.00 0.00 95 1014.7
20210615065506 75 355 0.0 2.0 0.00 0.00 0.00 95 1007.6
20210615065222 75 355 0.0 0.0 0.00 0.00 0.00 95 1014.6
20210615065005 75 354 0.0 1.0 0.00 0.00 0.00 95 1007.5
20210615064717 75 354 1.0 1.0 0.00 0.00 0.00 95 1014.5
20210615064506 75 355 0.0 1.0 0.00 0.00 0.00 95 1007.4
20210615064211 75 355 0.0 1.0 0.00 0.00 0.00 95 1014.5
20210615064006 75 355 0.0 0.0 0.00 0.00 0.00 95 1007.6
20210615063707 75 355 0.0 0.0 0.00 0.00 0.00 95 1014.5
20210615063508 75 355 0.0 1.0 0.00 0.00 0.00 95 1007.5
20210615063204 75 355 0.0 0.0 0.00 0.00 0.00 95 1014.6
20210615063005 75 355 1.0 1.0 0.00 0.00 0.00 95 1007.5
20210615062700 76 354 0.0 0.0 0.00 0.00 0.00 95 1014.6
20210615062505 76 354 0.0 0.0 0.00 0.00 0.00 95 1007.6
20210615062147 76 355 0.0 0.0 0.00 0.00 0.00 95 1014.6
20210615062005 76 355 0.0 0.0 0.00 0.00 0.00 95 1007.8
20210615061642 76 355 0.0 0.0 0.00 0.00 0.00 95 1014.3
20210615061505 76 354 0.0 0.0 0.00 0.00 0.00 95 1007.5
20210615061140 76 355 0.0 0.0 0.00 0.00 0.00 95 1014.4
20210615061006 76 354 0.0 1.0 0.00 0.00 0.00 95 1007.6
20210615060633 76 355 0.0 0.0 0.00 0.00 0.00 95 1014.5
20210615060506 76 355 0.0 0.0 0.00 0.00 0.00 95 1007.6
20210615060127 76 355 0.0 0.0 0.00 0.00 0.00 95 1014.4
20210615060006 76 355 0.0 0.0 0.00 0.00 0.00 95 1007.7
20210615055627 76 355 0.0 0.0 0.00 0.00 0.00 95 1014.6
20210615055505 76 355 0.0 0.0 0.00 0.00 0.00 95 1007.7
20210615055122 76 355 0.0 0.0 0.00 0.00 0.00 95 1014.4
20210615055006 76 354 0.0 1.0 0.00 0.00 0.00 95 1007.5
20210615054612 76 354 1.0 1.0 0.00 0.00 0.00 95 1014.5
20210615054506 76 355 0.0 0.0 0.00 0.00 0.00 95 1007.8
20210615054110 76 355 0.0 0.0 0.00 0.00 0.00 94 1014.5
20210615054007 76 355 0.0 0.0 0.00 0.00 0.00 94 1007.6
20210615053605 76 355 0.0 0.0 0.00 0.00 0.00 94 1014.4
20210615053506 76 355 0.0 0.0 0.00 0.00 0.00 94 1007.8
20210615053103 76 355 0.0 0.0 0.00 0.00 0.00 94 1014.5
20210615053005 76 355 0.0 0.0 0.00 0.00 0.00 94 1007.7
20210615052602 76 355 0.0 0.0 0.00 0.00 0.00 94 1014.7
20210615052505 76 355 0.0 0.0 0.00 0.00 0.00 94 1007.7
20210615052102 76 355 0.0 0.0 0.00 0.00 0.00 94 1014.4
20210615052005 76 355 0.0 0.0 0.00 0.00 0.00 94 1007.7
20210615051554 76 355 0.0 0.0 0.00 0.00 0.00 94 1014.5
20210615051505 76 355 0.0 1.0 0.00 0.00 0.00 94 1007.6
20210615051053 76 355 0.0 0.0 0.00 0.00 0.00 94 1014.6
20210615051007 76 355 0.0 1.0 0.00 0.00 0.00 94 1007.7
20210615050548 77 355 0.0 1.0 0.00 0.00 0.00 94 1014.6
20210615050506 76 355 0.0 1.0 0.00 0.00 0.00 94 1007.7
20210615050046 76 355 1.0 1.0 0.00 0.00 0.00 94 1014.7
20210615050012 76 355 0.0 1.0 0.00 0.00 0.00 94 1007.8
20210615045543 76 355 0.0 0.0 0.00 0.00 0.00 94 1014.6
20210615045507 76 355 0.0 0.0 0.00 0.01 0.00 94 1007.9
20210615045041 77 355 0.0 0.0 0.00 0.00 0.00 94 1014.6
20210615045007 76 355 0.0 1.0 0.00 0.01 0.00 94 1008.0
20210615044537 77 355 0.0 1.0 0.00 0.00 0.00 94 1014.7
20210615044530 76 355 0.0 1.0 0.00 0.20 0.00 94 1007.8
20210615044032 76 355 0.0 0.0 0.00 0.00 0.00 94 1014.8
20210615044006 76 355 0.0 1.0 0.00 0.20 0.00 94 1007.8
20210615043531 77 355 0.0 0.0 0.00 0.00 0.00 94 1014.8
20210615043508 76 355 0.0 0.0 0.00 0.20 0.00 94 1007.9
20210615043023 77 355 0.0 0.0 0.00 0.00 0.00 94 1014.7
20210615043005 77 355 0.0 0.0 0.00 0.20 0.00 94 1007.9
20210615042522 77 355 0.0 0.0 0.00 0.00 0.00 94 1014.7
20210615042506 77 355 0.0 0.0 0.00 0.20 0.00 94 1007.9
20210615042019 77 355 0.0 0.0 0.00 0.00 0.00 94 1014.7
20210615042010 77 355 0.0 0.0 0.00 0.20 0.00 94 1007.9
20210615041514 77 355 0.0 0.0 0.00 0.00 0.00 94 1014.7
20210615041506 77 355 0.0 0.0 0.00 0.20 0.00 94 1007.8
20210615041012 77 355 0.0 0.0 0.00 0.00 0.00 94 1014.7
20210615041009 77 355 0.0 0.0 0.00 0.20 0.00 94 1008.1
20210615040508 77 355 0.0 0.0 0.00 0.00 0.00 94 1014.9
20210615040506 77 355 0.0 0.0 0.00 0.20 0.00 94 1008.1
20210615040007 77 355 0.0 0.0 0.00 0.00 0.00 94 1015.2
20210615035506 77 355 0.0 0.0 0.00 0.20 0.00 94 1008.1
20210615035503 77 355 0.0 0.0 0.00 0.00 0.00 94 1015.0
20210615035018 77 355 0.0 0.0 0.00 0.20 0.00 94 1007.9
20210615035002 77 355 0.0 0.0 0.00 0.00 0.00 94 1014.8
20210615034506 77 355 0.0 0.0 0.00 0.20 0.00 94 1008.1
20210615034502 77 355 0.0 0.0 0.00 0.00 0.00 94 1014.9
20210615034008 77 355 0.0 0.0 0.00 0.20 0.00 94 1008.1
20210615034000 77 355 0.0 0.0 0.00 0.00 0.00 94 1014.9
20210615033509 77 355 0.0 1.0 0.00 0.20 0.00 94 1008.0
20210615033455 77 355 0.0 0.0 0.00 0.00 0.00 94 1015.0
20210615033019 77 355 0.0 1.0 0.00 0.20 0.00 94 1007.9
20210615032950 77 355 0.0 1.0 0.00 0.00 0.00 94 1014.8
20210615032521 77 355 0.0 0.0 0.00 0.20 0.00 93 1008.0
20210615032445 77 355 0.0 0.0 0.00 0.00 0.00 93 1014.8
20210615031942 77 355 0.0 0.0 0.00 0.00 0.00 93 1014.8
20210615031507 78 355 0.0 0.0 0.00 0.20 0.00 93 1007.7
20210615031431 78 355 0.0 0.0 0.00 0.00 0.00 93 1014.7
20210615031007 78 355 0.0 0.0 0.00 0.20 0.00 93 1007.8
20210615030928 78 355 0.0 0.0 0.00 0.00 0.00 93 1014.7
20210615030514 77 355 0.0 0.0 0.00 0.20 0.00 93 1007.6
20210615030427 77 355 0.0 0.0 0.00 0.00 0.00 93 1014.4
20210615030011 78 355 0.0 0.0 0.00 0.20 0.00 93 1007.6
20210615025927 78 355 0.0 0.0 0.00 0.00 0.00 93 1014.6
20210615025509 78 355 0.0 0.0 0.00 0.20 0.00 93 1007.4
20210615025420 78 355 0.0 0.0 0.00 0.00 0.00 93 1014.3
20210615025007 78 355 0.0 0.0 0.00 0.20 0.00 92 1007.5
20210615024918 78 355 0.0 0.0 0.00 0.00 0.00 92 1014.4
20210615024506 78 355 0.0 0.0 0.00 0.20 0.00 92 1007.4
20210615024412 78 355 0.0 0.0 0.00 0.00 0.00 92 1014.4
20210615024018 78 355 0.0 0.0 0.00 0.20 0.00 92 1007.2
20210615023904 78 355 0.0 0.0 0.00 0.00 0.00 92 1014.0
20210615023508 78 355 0.0 0.0 0.00 0.20 0.00 92 1007.0
20210615023401 78 355 0.0 0.0 0.00 0.00 0.00 92 1013.8
20210615023007 78 355 0.0 0.0 0.00 0.20 0.00 92 1007.1
20210615022859 78 355 0.0 0.0 0.00 0.00 0.00 92 1014.0
20210615022526 78 355 0.0 0.0 0.00 0.20 0.00 91 1007.0
20210615022356 78 355 0.0 0.0 0.00 0.00 0.00 91 1013.9
20210615022009 78 355 0.0 0.0 0.00 0.20 0.00 91 1006.7
20210615021853 78 355 0.0 0.0 0.00 0.00 0.00 91 1013.9
20210615021506 78 355 0.0 0.0 0.00 0.20 0.00 90 1006.7
20210615021351 78 355 0.0 0.0 0.00 0.00 0.00 90 1013.4
20210615021007 79 355 0.0 0.0 0.00 0.20 0.00 90 1006.8
20210615020842 79 355 0.0 0.0 0.00 0.00 0.00 90 1013.6
20210615020506 79 355 0.0 1.0 0.00 0.20 0.00 90 1007.0
20210615020339 79 355 0.0 0.0 0.00 0.00 0.00 90 1013.8
20210615020005 79 355 0.0 0.0 0.00 0.20 0.00 89 1006.7
20210615015836 79 355 0.0 0.0 0.00 0.00 0.00 89 1013.6
20210615015506 79 355 0.0 0.0 0.00 0.20 0.00 88 1006.6
20210615015334 79 355 0.0 0.0 0.00 0.00 0.00 88 1013.3
20210615015012 80 355 0.0 0.0 0.00 0.20 0.00 86 1006.6
20210615014828 80 355 0.0 0.0 0.00 0.00 0.00 86 1013.5
20210615014505 80 355 0.0 0.0 0.00 0.20 0.00 86 1006.7
20210615014326 80 355 0.0 0.0 0.00 0.00 0.00 86 1013.3
20210615014006 80 355 0.0 1.0 0.00 0.20 0.00 86 1006.3
20210615013825 80 355 0.0 0.0 0.00 0.00 0.00 86 1013.1
20210615013514 80 355 0.0 1.0 0.00 0.20 0.00 85 1006.4
20210615013325 80 355 0.0 0.0 0.00 0.00 0.00 85 1013.4
20210615013007 81 355 0.0 0.0 0.00 0.20 0.00 85 1006.4
20210615012821 81 355 0.0 0.0 0.00 0.00 0.00 85 1013.3
20210615012505 81 355 0.0 0.0 0.00 0.20 0.00 85 1006.5
20210615012317 81 355 0.0 0.0 0.00 0.00 0.00 85 1013.3
20210615012031 81 355 0.0 0.0 0.00 0.20 0.00 85 1006.6
20210615011813 81 355 0.0 0.0 0.00 0.00 0.00 85 1013.5
20210615011507 82 355 0.0 0.0 0.00 0.20 0.00 84 1006.3
20210615011307 82 355 0.0 0.0 0.00 0.00 0.00 84 1013.2
20210615011007 82 355 0.0 0.0 0.00 0.20 0.00 84 1006.3
20210615010800 82 355 0.0 0.0 0.00 0.00 0.00 84 1013.3
20210615010506 82 355 0.0 0.0 0.00 0.20 0.00 84 1006.6
20210615010259 82 355 0.0 0.0 0.00 0.00 0.00 84 1013.4
20210615010029 82 355 0.0 0.0 0.00 0.20 0.00 83 1006.4
20210615005753 83 355 0.0 0.0 0.00 0.00 0.00 83 1013.4
20210615005519 83 355 0.0 0.0 0.00 0.20 0.00 83 1006.5
20210615005247 83 355 0.0 0.0 0.00 0.00 0.00 83 1013.4
20210615005006 83 355 0.0 0.0 0.00 0.20 0.00 83 1006.4
20210615004746 83 355 0.0 0.0 0.00 0.00 0.00 82 1013.5
20210615004520 83 355 0.0 0.0 0.00 0.20 0.00 82 1006.3
20210615004245 83 355 0.0 0.0 0.00 0.00 0.00 82 1013.2
20210615004004 84 355 0.0 0.0 0.00 0.20 0.00 82 1006.2
20210615003738 84 355 0.0 0.0 0.00 0.00 0.00 81 1013.2
20210615003520 84 355 0.0 0.0 0.00 0.20 0.00 81 1006.4
20210615003233 84 355 0.0 0.0 0.00 0.00 0.00 80 1013.3
20210615003009 85 355 0.0 0.0 0.00 0.20 0.00 79 1006.1
20210615002728 85 355 0.0 0.0 0.00 0.00 0.00 80 1013.1
20210615002506 85 355 0.0 0.0 0.00 0.20 0.00 77 1006.1
20210615002225 86 355 0.0 0.0 0.00 0.00 0.00 77 1012.9
20210615002014 86 355 0.0 0.0 0.00 0.20 0.00 77 1006.1
20210615001717 86 355 0.0 0.0 0.00 0.00 0.00 76 1012.8
20210615001216 87 355 0.0 0.0 0.00 0.00 0.00 74 1013.1
20210615001004 88 355 0.0 0.0 0.00 0.20 0.00 73 1006.0
20210615000714 88 355 0.0 0.0 0.00 0.00 0.00 73 1012.6
20210615000512 88 355 0.0 1.0 0.00 0.20 0.00 72 1006.1
20210615000205 88 355 0.0 0.0 0.00 0.00 0.00 67 1012.8
20210615000005 89 355 0.0 1.0 0.00 0.20 0.00 68 1006.1
20210614235655 89 356 0.0 0.0 0.00 0.00 0.00 67 1012.9
20210614235508 89 337 1.0 2.0 0.00 0.20 0.00 65 1005.9
20210614235153 89 347 0.0 1.0 0.00 0.00 0.00 64 1012.7
20210614235007 89 344 0.0 1.0 0.00 0.20 0.00 65 1006.0
20210614234512 89 348 2.0 3.0 0.00 0.20 0.00 63 1005.7
20210614234149 90 352 1.0 2.0 0.00 0.00 0.00 62 1012.7
20210614234008 90 347 1.0 2.0 0.00 0.20 0.00 64 1005.9
20210614233643 90 336 2.0 2.0 0.00 0.00 0.00 63 1012.8
20210614233508 90 331 1.0 2.0 0.00 0.20 0.00 64 1006.0
20210614233142 90 335 0.0 1.0 0.00 0.00 0.00 63 1012.7
20210614233009 90 353 1.0 2.0 0.00 0.20 0.00 62 1005.9
20210614232629 90 335 1.0 1.0 0.00 0.00 0.00 63 1012.7
20210614232534 90 352 1.0 2.0 0.00 0.20 0.00 61 1005.8
20210614232120 90 7 1.0 2.0 0.00 0.00 0.00 60 1012.8
20210614232006 90 8 1.0 2.0 0.00 0.20 0.00 61 1005.9
20210614231614 90 3 1.0 1.0 0.00 0.00 0.00 62 1012.8
20210614231510 90 353 1.0 2.0 0.00 0.20 0.00 62 1006.0
20210614231108 90 336 2.0 2.0 0.00 0.00 0.00 59 1012.8
20210614231006 90 331 1.0 2.0 0.00 0.20 0.00 60 1006.2
20210614230608 91 352 0.0 1.0 0.00 0.00 0.00 59 1012.8
20210614230505 91 350 0.0 2.0 0.00 0.20 0.00 61 1005.9
20210614230106 91 8 2.0 2.0 0.00 0.00 0.00 58 1012.8
20210614230006 91 3 1.0 2.0 0.00 0.20 0.00 63 1005.9
20210614225603 91 354 1.0 1.0 0.00 0.00 0.00 61 1013.0
20210614225506 91 352 0.0 2.0 0.00 0.20 0.00 59 1006.2
20210614225102 91 347 0.0 1.0 0.00 0.00 0.00 57 1013.2
20210614225006 91 348 2.0 3.0 0.00 0.20 0.00 60 1006.1
20210614224558 91 4 2.0 2.0 0.00 0.00 0.00 58 1013.0
20210614224514 91 352 1.0 2.0 0.00 0.20 0.00 61 1006.3
20210614224058 91 356 0.0 1.0 0.00 0.00 0.00 62 1013.2
20210614224007 91 356 1.0 2.0 0.00 0.20 0.00 58 1006.3
20210614223558 91 342 1.0 1.0 0.00 0.00 0.00 54 1013.2
20210614223506 91 343 2.0 3.0 0.00 0.20 0.00 54 1006.2
20210614223054 92 348 1.0 1.0 0.00 0.00 0.00 57 1013.3
20210614223011 92 358 1.0 2.0 0.00 0.20 0.00 53 1006.2
20210614222550 92 340 1.0 1.0 0.00 0.00 0.00 58 1013.3
20210614222515 92 341 2.0 5.0 0.00 0.20 0.00 55 1006.2
20210614222029 93 1 2.0 3.0 0.00 0.00 0.00 52 1013.4
20210614222006 93 354 0.0 1.0 0.00 0.20 0.00 54 1006.4
20210614221521 92 352 1.0 1.0 0.00 0.00 0.00 51 1013.6
20210614221505 92 18 2.0 3.0 0.00 0.20 0.00 50 1006.5
20210614221015 92 340 3.0 3.0 0.00 0.00 0.00 51 1013.1
20210614221006 92 355 2.0 2.0 0.00 0.20 0.00 53 1006.4
20210614220514 92 352 1.0 2.0 0.00 0.00 0.00 51 1013.4
20210614220510 92 353 2.0 5.0 0.00 0.20 0.00 53 1006.5
20210614220009 92 344 3.0 5.0 0.00 0.00 0.00 52 1013.5
20210614220007 92 346 2.0 5.0 0.00 0.20 0.00 51 1006.7
20210614215508 93 347 2.0 2.0 0.00 0.00 0.00 50 1013.4
20210614215506 93 343 2.0 3.0 0.00 0.20 0.00 48 1006.6
20210614215006 93 8 2.0 8.0 0.00 0.20 0.00 51 1006.5
20210614214509 93 325 3.0 8.0 0.00 0.20 0.00 50 1006.7
20210614214459 93 323 4.0 8.0 0.00 0.00 0.00 50 1013.6
20210614214009 93 357 2.0 5.0 0.00 0.20 0.00 51 1006.7
20210614213959 93 345 2.0 3.0 0.00 0.00 0.00 49 1013.6
20210614213519 92 340 1.0 3.0 0.00 0.20 0.00 53 1006.6
20210614213453 93 338 2.0 3.0 0.00 0.00 0.00 51 1013.5
20210614213006 93 37 4.0 7.0 0.00 0.20 0.00 51 1006.7
20210614212948 93 38 3.0 3.0 0.00 0.00 0.00 52 1013.5
20210614212506 93 1 1.0 5.0 0.00 0.20 0.00 52 1006.8
20210614212446 93 357 1.0 2.0 0.00 0.00 0.00 51 1013.7
20210614212007 93 342 3.0 6.0 0.00 0.20 0.00 52 1006.8
20210614211944 93 344 1.0 1.0 0.00 0.00 0.00 53 1013.7
20210614211507 93 18 2.0 5.0 0.00 0.20 0.00 51 1006.8
20210614211441 93 20 2.0 3.0 0.00 0.00 0.00 51 1013.6
20210614211008 94 354 2.0 3.0 0.00 0.20 0.00 55 1006.9
20210614210937 94 355 2.0 2.0 0.00 0.00 0.00 54 1013.7
20210614210507 93 49 2.0 5.0 0.00 0.20 0.00 53 1006.9
20210614210435 93 75 3.0 3.0 0.00 0.00 0.00 54 1013.7
20210614210006 92 9 3.0 7.0 0.00 0.20 0.00 52 1006.8
20210614205932 93 357 1.0 2.0 0.00 0.00 0.00 53 1013.7
20210614205505 93 16 2.0 5.0 0.00 0.20 0.00 53 1006.9
20210614205428 93 356 2.0 2.0 0.00 0.00 0.00 52 1013.6
20210614205005 93 3 2.0 3.0 0.00 0.20 0.00 53 1006.9
20210614204912 93 7 3.0 3.0 0.00 0.00 0.00 53 1013.7
20210614204505 93 357 2.0 3.0 0.00 0.20 0.00 54 1006.9
20210614204411 93 1 1.0 2.0 0.00 0.00 0.00 54 1013.7
20210614204006 92 24 2.0 5.0 0.00 0.20 0.00 55 1007.1
20210614203909 92 38 2.0 3.0 0.00 0.00 0.00 54 1014.0
20210614203506 93 333 2.0 6.0 0.00 0.20 0.00 56 1007.1
20210614203406 93 342 2.0 2.0 0.00 0.00 0.00 55 1014.0
20210614203007 93 344 3.0 6.0 0.00 0.20 0.00 57 1007.0
20210614202901 93 14 4.0 6.0 0.00 0.00 0.00 60 1013.9
20210614202507 92 54 5.0 8.0 0.00 0.20 0.00 57 1007.3
20210614202355 92 1 4.0 6.0 0.00 0.00 0.00 56 1014.3
20210614202007 92 3 2.0 7.0 0.00 0.20 0.00 55 1007.2
20210614201855 92 10 3.0 3.0 0.00 0.00 0.00 55 1014.3
20210614201506 92 15 4.0 6.0 0.00 0.20 0.00 57 1007.1
20210614201353 92 0 4.0 6.0 0.00 0.00 0.00 57 1014.2